Time;durP1;ratioP1;P1;durP2;ratioP2;P2;SDS_P1;SDS_P2;PMS_P1;PMS_P2;Temp;Humidity;BMP_temperature;BMP_pressure;BME280_temperature;BME280_humidity;BME280_pressure;Samples;Min_cycle;Max_cycle;Signal;HPM_P1;HPM_P2
2023/03/06 00:00:17;;;;;;;13.07;8.27;;;;;;;4.68;71.58;97970.44;4977013;28;103750;-60
2023/03/06 00:02:48;;;;;;;14.87;10.27;;;;;;;4.60;71.11;97970.06;4965561;28;103234;-63
2023/03/06 00:05:17;;;;;;;15.30;9.83;;;;;;;4.48;72.50;97965.53;4962618;28;103235;-60
2023/03/06 00:07:45;;;;;;;16.00;10.13;;;;;;;4.48;71.88;97962.94;4977137;28;102624;-60
2023/03/06 00:10:17;;;;;;;15.47;10.23;;;;;;;4.17;72.40;97966.50;4977946;28;102696;-60
2023/03/06 00:12:45;;;;;;;14.40;9.70;;;;;;;4.20;72.49;97960.25;4973682;28;104050;-61
2023/03/06 00:15:14;;;;;;;15.27;8.77;;;;;;;4.20;72.88;97968.09;4958306;28;103357;-61
2023/03/06 00:17:42;;;;;;;16.47;9.60;;;;;;;4.32;72.31;97959.53;4973662;28;102698;-61
2023/03/06 00:20:11;;;;;;;12.47;8.50;;;;;;;4.43;72.51;97959.75;4973764;28;102713;-60
2023/03/06 00:22:40;;;;;;;14.53;9.10;;;;;;;4.49;71.80;97956.78;4973964;28;104154;-61
2023/03/06 00:25:12;;;;;;;17.20;9.27;;;;;;;4.46;71.93;97954.34;4961082;28;103275;-60
2023/03/06 00:27:42;;;;;;;13.40;8.40;;;;;;;4.58;72.08;97950.97;4970106;28;102574;-61
2023/03/06 00:30:12;;;;;;;13.60;7.27;;;;;;;4.64;71.52;97934.91;4975596;28;102985;-60
2023/03/06 00:32:43;;;;;;;12.47;6.67;;;;;;;4.71;71.56;97940.63;4969858;28;104930;-60
2023/03/06 00:35:12;;;;;;;13.63;9.77;;;;;;;4.48;71.39;97942.84;4985541;28;103149;-60
2023/03/06 00:37:40;;;;;;;12.73;8.13;;;;;;;4.35;72.91;97938.44;4972565;28;102827;-60
2023/03/06 00:40:11;;;;;;;12.63;7.73;;;;;;;4.55;72.06;97938.06;4969292;28;102739;-60
2023/03/06 00:42:40;;;;;;;14.97;9.47;;;;;;;4.45;71.96;97940.41;4975520;28;103093;-60
2023/03/06 00:45:10;;;;;;;11.80;8.83;;;;;;;4.37;72.80;97931.34;4955893;28;104088;-61
2023/03/06 00:47:39;;;;;;;14.07;9.73;;;;;;;4.39;72.66;97930.31;4973658;28;102696;-60
2023/03/06 00:50:08;;;;;;;16.43;10.07;;;;;;;4.23;74.14;97923.47;4978600;28;102722;-61
2023/03/06 00:52:37;;;;;;;15.70;9.87;;;;;;;4.37;73.38;97928.72;4964292;28;103194;-60
2023/03/06 00:55:05;;;;;;;13.87;8.87;;;;;;;4.45;73.25;97923.88;4964233;28;103429;-60
2023/03/06 00:57:33;;;;;;;13.47;10.03;;;;;;;4.41;72.86;97922.34;4970231;28;103193;-60
2023/03/06 01:00:06;;;;;;;15.07;9.27;;;;;;;4.43;72.97;97925.75;4977900;28;102702;-60
2023/03/06 01:02:36;;;;;;;12.50;9.07;;;;;;;4.31;72.89;97927.31;4968663;28;102982;-60
2023/03/06 01:05:05;;;;;;;12.47;8.00;;;;;;;4.23;73.02;97915.63;4971234;28;103194;-61
2023/03/06 01:07:35;;;;;;;14.20;8.97;;;;;;;4.07;73.00;97908.66;4978071;28;102645;-60
2023/03/06 01:10:04;;;;;;;12.53;7.77;;;;;;;4.21;72.69;97907.03;4973698;28;102863;-60
2023/03/06 01:12:32;;;;;;;11.60;8.47;;;;;;;4.19;72.50;97908.88;4971446;28;103372;-60
2023/03/06 01:15:00;;;;;;;11.90;8.37;;;;;;;4.00;72.46;97899.53;4956011;28;103144;-60
2023/03/06 01:17:29;;;;;;;13.10;8.63;;;;;;;3.80;73.88;97894.59;4971533;28;102979;-60
2023/03/06 01:19:58;;;;;;;12.10;8.33;;;;;;;3.83;73.32;97904.03;4973892;28;102699;-61
2023/03/06 01:22:26;;;;;;;11.10;7.80;;;;;;;4.12;72.84;97912.78;4973325;28;103255;-60
2023/03/06 01:24:54;;;;;;;8.97;6.27;;;;;;;4.30;72.20;97899.47;4961774;28;103377;-60
2023/03/06 01:27:22;;;;;;;11.67;7.77;;;;;;;4.29;72.00;97891.72;5001366;28;102685;-60
2023/03/06 01:29:50;;;;;;;14.13;7.57;;;;;;;4.17;73.02;97888.06;4972504;28;102579;-60
2023/03/06 01:32:18;;;;;;;12.50;7.47;;;;;;;4.26;72.83;97897.13;4957882;28;103376;-60
2023/03/06 01:34:49;;;;;;;12.53;7.40;;;;;;;4.31;72.55;97889.84;4958236;28;103111;-60
2023/03/06 01:37:19;;;;;;;14.00;8.50;;;;;;;4.32;72.79;97887.16;4971936;28;102698;-60
2023/03/06 01:39:46;;;;;;;10.83;6.83;;;;;;;4.26;73.17;97894.53;4972212;28;103975;-60
2023/03/06 01:42:15;;;;;;;13.40;8.73;;;;;;;4.04;72.94;97887.13;4951642;28;104513;-60
2023/03/06 01:45:04;;;;;;;13.00;8.53;;;;;;;4.05;72.99;97873.94;4972169;28;103370;-60
2023/03/06 01:47:34;;;;;;;10.73;7.70;;;;;;;3.99;72.25;97879.53;4968480;28;102934;-60
2023/03/06 01:50:04;;;;;;;13.20;8.07;;;;;;;3.99;71.38;97876.91;4974081;28;102769;-60
2023/03/06 01:52:44;;;;;;;13.33;7.80;;;;;;;3.90;72.17;97869.59;4958491;28;103878;-60
2023/03/06 01:55:15;;;;;;;10.60;7.00;;;;;;;3.98;70.91;97867.41;4960994;28;103197;-60
2023/03/06 01:57:46;;;;;;;9.20;7.40;;;;;;;3.95;70.94;97864.13;4970963;28;102614;-60
2023/03/06 02:00:18;;;;;;;13.90;7.07;;;;;;;4.07;70.72;97866.84;4973551;28;103810;-60
2023/03/06 02:02:51;;;;;;;12.83;8.33;;;;;;;4.12;70.77;97861.38;4965704;28;103242;-60
2023/03/06 02:05:20;;;;;;;9.37;6.93;;;;;;;4.14;70.51;97845.56;4975321;28;103227;-60
2023/03/06 02:07:53;;;;;;;11.67;8.33;;;;;;;4.01;70.88;97855.94;4971115;28;103484;-60
2023/03/06 02:10:21;;;;;;;12.20;7.70;;;;;;;4.02;70.80;97848.00;4970757;28;102833;-60
2023/03/06 02:12:53;;;;;;;13.03;8.23;;;;;;;4.01;71.15;97835.84;4965240;28;103212;-60
2023/03/06 02:15:24;;;;;;;14.87;8.10;;;;;;;3.58;73.01;97836.69;4975292;28;103209;-60
2023/03/06 02:17:53;;;;;;;12.03;8.03;;;;;;;3.71;73.42;97842.88;4974061;28;102721;-60
2023/03/06 02:20:26;;;;;;;11.60;7.87;;;;;;;3.79;72.26;97832.81;4977024;28;102767;-60
2023/03/06 02:23:00;;;;;;;11.83;7.60;;;;;;;3.78;72.16;97828.53;4960922;28;103216;-60
2023/03/06 02:25:37;;;;;;;10.80;6.37;;;;;;;3.98;71.71;97825.59;4973217;28;103766;-60
2023/03/06 02:28:07;;;;;;;9.63;6.73;;;;;;;4.10;71.46;97826.59;4971178;28;103842;-60
2023/03/06 02:30:36;;;;;;;10.73;8.23;;;;;;;4.04;71.20;97819.97;4974159;28;102804;-60
2023/03/06 02:33:05;;;;;;;11.47;8.00;;;;;;;4.11;71.00;97810.00;4960369;28;103061;-60
2023/03/06 02:35:36;;;;;;;12.80;9.07;;;;;;;4.06;71.12;97802.44;4959870;28;103293;-60
2023/03/06 02:38:08;;;;;;;13.10;8.90;;;;;;;3.75;71.37;97814.81;4976344;28;102769;-60
2023/03/06 02:40:38;;;;;;;14.47;8.63;;;;;;;3.87;71.84;97812.31;4973687;28;103830;-60
2023/03/06 02:43:07;;;;;;;9.17;7.20;;;;;;;4.02;71.92;97808.78;4961711;28;105441;-60
2023/03/06 02:45:38;;;;;;;12.17;8.83;;;;;;;3.83;71.11;97804.75;4978257;28;103179;-62
2023/03/06 02:48:07;;;;;;;12.87;8.80;;;;;;;3.80;72.41;97807.53;4966543;28;103074;-60
2023/03/06 02:50:35;;;;;;;10.87;7.80;;;;;;;3.94;72.15;97802.31;4974885;28;102804;-60
2023/03/06 02:53:03;;;;;;;10.43;7.53;;;;;;;3.91;71.60;97800.75;4969869;28;104514;-60
2023/03/06 02:55:31;;;;;;;10.33;7.70;;;;;;;3.91;71.03;97798.13;4964658;28;103088;-60
2023/03/06 02:58:01;;;;;;;9.20;7.53;;;;;;;3.90;71.53;97793.81;4975306;28;102749;-60
2023/03/06 03:00:33;;;;;;;12.67;8.00;;;;;;;3.99;70.71;97801.13;4973676;28;104242;-60
2023/03/06 03:03:05;;;;;;;11.73;7.93;;;;;;;4.13;70.31;97797.66;4965902;28;103420;-60
2023/03/06 03:05:33;;;;;;;11.47;8.10;;;;;;;3.83;71.37;97800.38;4963294;28;103399;-60
2023/03/06 03:08:09;;;;;;;11.17;8.57;;;;;;;3.74;71.07;97795.69;4976867;28;102582;-60
2023/03/06 03:10:37;;;;;;;12.27;8.70;;;;;;;3.69;71.35;97792.50;4977065;28;102742;-60
2023/03/06 03:13:06;;;;;;;13.13;8.83;;;;;;;3.81;71.45;97786.56;4974471;28;103388;-60
2023/03/06 03:15:35;;;;;;;11.27;8.47;;;;;;;3.80;71.24;97800.53;4950752;28;103897;-61
2023/03/06 03:18:03;;;;;;;10.90;6.90;;;;;;;3.95;71.32;97791.81;4975379;28;102791;-61
2023/03/06 03:20:31;;;;;;;10.63;8.30;;;;;;;4.07;70.88;97787.59;4973982;28;102768;-61
2023/03/06 03:22:59;;;;;;;10.70;8.00;;;;;;;4.06;70.85;97783.31;4975063;28;103777;-61
2023/03/06 03:25:27;;;;;;;14.10;9.13;;;;;;;3.91;70.81;97781.59;4988717;28;103737;-61
2023/03/06 03:27:57;;;;;;;14.53;8.53;;;;;;;3.89;71.60;97779.09;4975905;28;103898;-61
2023/03/06 03:30:28;;;;;;;11.20;9.03;;;;;;;3.65;72.06;97775.31;4974677;28;102784;-61
2023/03/06 03:32:55;;;;;;;12.07;8.17;;;;;;;3.83;71.64;97776.84;4978040;28;103178;-61
2023/03/06 03:35:24;;;;;;;12.23;9.30;;;;;;;3.80;71.27;97770.97;4972943;28;103367;-61
2023/03/06 03:37:54;;;;;;;10.17;7.10;;;;;;;3.79;71.76;97770.09;4971267;28;102810;-57
2023/03/06 03:40:22;;;;;;;11.07;7.63;;;;;;;3.86;71.58;97784.50;4967514;28;103627;-57
2023/03/06 03:42:51;;;;;;;12.57;8.80;;;;;;;3.84;71.29;97778.53;4970499;28;105314;-57
2023/03/06 03:45:20;;;;;;;11.00;7.53;;;;;;;3.85;71.53;97771.50;4971261;28;102748;-57
2023/03/06 03:47:50;;;;;;;12.57;8.27;;;;;;;3.97;71.54;97771.63;4968860;28;102726;-57
2023/03/06 03:50:18;;;;;;;11.93;8.73;;;;;;;4.07;72.11;97772.75;4973743;28;103027;-57
2023/03/06 03:52:47;;;;;;;12.13;8.70;;;;;;;4.10;72.57;97767.34;4968057;28;103374;-57
2023/03/06 03:55:15;;;;;;;8.00;5.97;;;;;;;4.12;72.10;97775.09;4974851;28;105207;-57
2023/03/06 03:57:43;;;;;;;12.40;9.27;;;;;;;4.06;71.97;97765.00;4975115;28;102728;-57
2023/03/06 04:00:15;;;;;;;11.17;9.20;;;;;;;3.98;71.96;97775.94;4973081;28;102695;-61
2023/03/06 04:02:53;;;;;;;11.97;8.47;;;;;;;3.96;71.77;97764.72;4985647;28;103984;-61
2023/03/06 04:05:32;;;;;;;13.07;7.97;;;;;;;4.00;71.67;97760.16;4973760;28;103652;-61
2023/03/06 04:08:03;;;;;;;9.53;7.27;;;;;;;3.76;72.76;97752.00;4983145;28;102769;-61
2023/03/06 04:10:33;;;;;;;9.73;6.87;;;;;;;3.92;71.95;97746.72;4980939;28;103117;-61
2023/03/06 04:13:02;;;;;;;10.27;7.83;;;;;;;3.98;71.80;97747.19;4969890;28;107068;-61
2023/03/06 04:15:30;;;;;;;10.87;7.50;;;;;;;4.07;71.93;97751.84;4973127;28;103204;-61
2023/03/06 04:18:01;;;;;;;13.83;9.03;;;;;;;4.07;72.30;97749.22;4973709;28;102836;-61
2023/03/06 04:20:31;;;;;;;12.07;8.57;;;;;;;4.06;72.93;97744.94;4973933;28;102869;-61
2023/03/06 04:23:00;;;;;;;10.87;7.43;;;;;;;3.90;73.73;97744.19;4951490;28;105289;-61
2023/03/06 04:25:29;;;;;;;11.97;9.33;;;;;;;3.81;73.34;97743.91;4967172;28;103204;-61
2023/03/06 04:27:59;;;;;;;9.77;7.97;;;;;;;3.76;73.94;97746.78;4975930;28;102691;-61
2023/03/06 04:30:29;;;;;;;10.77;7.30;;;;;;;3.89;73.86;97733.84;4973009;28;103130;-61
2023/03/06 04:32:57;;;;;;;12.60;8.80;;;;;;;3.51;74.49;97744.78;4968263;28;104058;-61
2023/03/06 04:35:27;;;;;;;10.90;8.90;;;;;;;3.57;74.13;97730.53;4985911;28;103198;-61
2023/03/06 04:38:02;;;;;;;12.83;8.80;;;;;;;3.57;73.70;97740.97;4975302;28;102601;-60
2023/03/06 04:40:33;;;;;;;14.10;8.77;;;;;;;3.62;73.66;97727.66;4973854;28;103248;-61
2023/03/06 04:43:02;;;;;;;11.37;8.23;;;;;;;3.58;72.69;97724.38;4972314;28;103272;-61
2023/03/06 04:45:32;;;;;;;14.83;8.40;;;;;;;3.69;72.26;97729.81;4979239;28;103181;-61
2023/03/06 04:48:00;;;;;;;12.00;8.20;;;;;;;3.74;72.26;97724.28;4982185;28;103165;-60
2023/03/06 04:50:31;;;;;;;12.83;8.97;;;;;;;3.55;73.15;97721.94;4973996;28;102825;-56
2023/03/06 04:53:00;;;;;;;11.50;7.50;;;;;;;3.61;73.15;97728.59;4971491;28;103120;-57
2023/03/06 04:55:28;;;;;;;12.73;8.43;;;;;;;3.58;73.00;97726.16;4974978;28;103257;-57
2023/03/06 04:57:57;;;;;;;12.73;9.03;;;;;;;3.58;72.54;97716.53;4973481;28;102575;-57
2023/03/06 05:00:29;;;;;;;11.57;8.17;;;;;;;3.69;72.04;97716.75;4978018;28;102634;-57
2023/03/06 05:02:58;;;;;;;13.80;8.30;;;;;;;3.81;71.65;97723.84;4972557;28;103247;-57
2023/03/06 05:05:27;;;;;;;9.27;7.27;;;;;;;3.72;72.19;97716.56;4974130;28;103119;-56
2023/03/06 05:07:56;;;;;;;12.00;8.13;;;;;;;3.84;71.77;97721.06;4972821;28;102578;-57
2023/03/06 05:10:24;;;;;;;9.90;7.40;;;;;;;3.91;71.67;97724.13;4976225;28;103851;-56
2023/03/06 05:12:52;;;;;;;8.87;6.77;;;;;;;3.93;71.76;97723.09;4969101;28;103838;-56
2023/03/06 05:15:21;;;;;;;10.10;7.43;;;;;;;3.96;71.70;97717.69;4976708;28;102963;-56
2023/03/06 05:17:52;;;;;;;8.90;6.60;;;;;;;3.83;72.40;97716.75;4975792;28;104152;-56
2023/03/06 05:20:20;;;;;;;8.97;6.27;;;;;;;3.78;72.10;97717.97;4976638;28;103092;-56
2023/03/06 05:22:48;;;;;;;12.27;9.20;;;;;;;3.74;72.76;97714.69;4974735;28;103230;-57
2023/03/06 05:25:18;;;;;;;10.63;8.67;;;;;;;3.69;72.86;97718.50;4971765;28;103353;-57
2023/03/06 05:27:46;;;;;;;11.80;8.23;;;;;;;3.72;72.67;97713.94;4974888;28;102754;-57
2023/03/06 05:30:16;;;;;;;11.63;8.03;;;;;;;3.61;72.39;97713.75;4972863;28;104103;-57
2023/03/06 05:32:44;;;;;;;13.70;7.50;;;;;;;3.68;72.80;97717.66;4974403;28;103688;-57
2023/03/06 05:35:18;;;;;;;10.37;7.47;;;;;;;3.74;71.72;97711.22;4974172;28;103191;-57
2023/03/06 05:37:47;;;;;;;9.97;7.57;;;;;;;3.59;72.38;97707.78;4971546;28;102779;-57
2023/03/06 05:40:18;;;;;;;10.53;7.50;;;;;;;3.63;71.48;97709.28;4975797;28;103926;-57
2023/03/06 05:42:47;;;;;;;9.67;7.73;;;;;;;3.76;71.08;97706.78;4973957;28;102996;-57
2023/03/06 05:45:15;;;;;;;12.37;8.33;;;;;;;3.83;71.18;97701.06;4968164;28;103216;-57
2023/03/06 05:47:45;;;;;;;11.17;7.73;;;;;;;3.80;70.51;97703.88;4973795;28;102566;-57
2023/03/06 05:50:15;;;;;;;8.40;6.50;;;;;;;3.81;70.91;97697.72;4975652;28;103122;-60
2023/03/06 05:52:43;;;;;;;8.80;6.60;;;;;;;3.89;70.25;97699.84;4976961;28;103132;-57
2023/03/06 05:55:12;;;;;;;11.10;8.27;;;;;;;3.74;70.12;97703.38;4974162;28;103031;-59
2023/03/06 05:57:42;;;;;;;8.63;6.47;;;;;;;3.83;70.26;97705.47;4976137;28;102690;-56
2023/03/06 06:00:11;;;;;;;10.90;7.47;;;;;;;3.89;69.71;97705.09;4972109;28;102959;-57
2023/03/06 06:02:39;;;;;;;9.73;7.70;;;;;;;3.82;69.80;97704.59;4970375;28;103317;-59
2023/03/06 06:05:10;;;;;;;10.77;8.07;;;;;;;3.86;69.69;97707.88;4972841;28;103014;-59
2023/03/06 06:07:40;;;;;;;12.60;8.30;;;;;;;3.69;69.83;97706.28;4973532;28;102754;-59
2023/03/06 06:10:11;;;;;;;10.77;7.27;;;;;;;3.78;70.52;97700.53;4974970;28;102717;-59
2023/03/06 06:12:41;;;;;;;12.47;8.30;;;;;;;3.91;69.60;97703.22;4969436;28;103257;-58
2023/03/06 06:15:09;;;;;;;11.60;7.60;;;;;;;4.01;69.29;97697.31;4977899;28;103309;-57
2023/03/06 06:17:37;;;;;;;10.70;6.80;;;;;;;4.06;69.20;97694.44;4975750;28;102716;-57
2023/03/06 06:20:06;;;;;;;10.67;7.03;;;;;;;4.00;69.42;97700.88;4966497;28;102684;-58
2023/03/06 06:22:36;;;;;;;10.60;7.13;;;;;;;4.04;69.42;97702.34;4975907;28;103618;-58
2023/03/06 06:25:05;;;;;;;16.00;7.73;;;;;;;3.91;68.42;97704.06;4974180;28;104054;-57
2023/03/06 06:27:33;;;;;;;8.77;6.70;;;;;;;3.97;69.32;97705.44;4978726;28;102618;-57
2023/03/06 06:30:02;;;;;;;10.70;7.87;;;;;;;4.03;68.86;97703.31;4974075;28;103986;-57
2023/03/06 06:32:30;;;;;;;11.10;8.13;;;;;;;4.10;68.42;97708.97;4961864;28;103217;-57
2023/03/06 06:34:58;;;;;;;12.73;8.13;;;;;;;3.98;66.94;97700.16;4969867;28;103245;-58
2023/03/06 06:37:26;;;;;;;12.70;7.87;;;;;;;3.97;68.07;97710.69;4971155;28;102551;-57
2023/03/06 06:39:54;;;;;;;14.03;8.23;;;;;;;3.86;67.91;97707.88;4973955;28;103902;-57
2023/03/06 06:42:22;;;;;;;12.37;8.20;;;;;;;3.82;67.83;97703.75;4968921;28;103283;-57
2023/03/06 06:45:06;;;;;;;12.23;7.87;;;;;;;3.99;67.57;97709.66;4974648;28;103252;-57
2023/03/06 06:47:35;;;;;;;11.87;7.50;;;;;;;3.95;68.33;97709.94;4975152;28;102880;-57
2023/03/06 06:50:04;;;;;;;12.47;7.47;;;;;;;4.18;67.41;97708.53;4977106;28;102659;-57
2023/03/06 06:52:32;;;;;;;10.30;7.97;;;;;;;4.12;66.98;97708.91;4977031;28;104049;-57
2023/03/06 06:55:00;;;;;;;7.87;6.10;;;;;;;4.23;67.37;97706.47;4975777;28;103205;-57
2023/03/06 06:57:28;;;;;;;8.93;6.43;;;;;;;4.26;67.26;97709.72;4976451;28;102889;-58
2023/03/06 06:59:57;;;;;;;11.70;8.00;;;;;;;4.43;67.02;97713.91;4977502;28;102928;-57
2023/03/06 07:02:26;;;;;;;9.07;7.20;;;;;;;4.23;66.91;97709.91;4976950;28;104056;-57
2023/03/06 07:04:54;;;;;;;8.47;6.37;;;;;;;4.38;66.68;97708.13;4978497;28;103333;-57
2023/03/06 07:07:34;;;;;;;11.03;8.03;;;;;;;4.23;65.78;97714.31;4976961;28;102609;-57
2023/03/06 07:10:04;;;;;;;8.23;6.27;;;;;;;4.25;66.52;97707.19;4976025;28;103915;-58
2023/03/06 07:12:33;;;;;;;9.63;6.60;;;;;;;4.43;66.53;97716.53;4965980;28;103473;-57
2023/03/06 07:15:02;;;;;;;10.10;6.53;;;;;;;4.29;65.80;97708.69;4976315;28;102985;-58
2023/03/06 07:17:32;;;;;;;9.23;6.23;;;;;;;4.51;66.12;97720.31;4975850;28;102617;-57
2023/03/06 07:20:00;;;;;;;9.07;6.00;;;;;;;4.49;65.67;97711.72;4978004;28;102707;-57
2023/03/06 07:22:30;;;;;;;10.53;7.40;;;;;;;4.23;65.77;97723.00;4994893;28;103935;-57
2023/03/06 07:25:15;;;;;;;9.80;6.67;;;;;;;4.37;66.21;97722.13;4965552;28;103200;-57
2023/03/06 07:27:43;;;;;;;8.80;7.30;;;;;;;4.53;65.81;97717.59;4978747;28;102686;-58
2023/03/06 07:30:23;;;;;;;8.47;6.33;;;;;;;4.41;65.80;97723.59;4970378;28;102645;-57
2023/03/06 07:32:58;;;;;;;9.93;6.27;;;;;;;4.52;65.27;97722.00;4975326;28;103204;-57
2023/03/06 07:35:28;;;;;;;7.50;6.30;;;;;;;4.44;65.12;97723.41;4969806;28;103133;-57
2023/03/06 07:37:57;;;;;;;10.33;7.40;;;;;;;4.40;65.14;97727.16;4973949;28;103246;-57
2023/03/06 07:40:25;;;;;;;9.20;6.97;;;;;;;4.57;64.84;97729.56;4975068;28;104080;-57
2023/03/06 07:42:54;;;;;;;10.63;6.67;;;;;;;4.64;64.33;97730.84;4974729;28;103283;-58
2023/03/06 07:45:45;;;;;;;10.70;6.00;;;;;;;4.82;64.96;97734.06;4975171;28;103270;-57
2023/03/06 07:48:14;;;;;;;8.03;6.37;;;;;;;4.76;64.45;97740.53;4976465;28;102902;-57
2023/03/06 07:50:42;;;;;;;9.63;6.50;;;;;;;4.55;64.80;97737.50;4978228;28;104024;-57
2023/03/06 07:53:10;;;;;;;8.83;5.83;;;;;;;4.72;64.73;97738.19;4971405;28;103279;-57
2023/03/06 07:55:41;;;;;;;6.20;4.87;;;;;;;4.90;64.16;97740.47;4978746;28;104464;-57
2023/03/06 07:58:09;;;;;;;10.03;6.77;;;;;;;4.88;64.17;97739.75;4974369;28;104328;-58
2023/03/06 08:00:37;;;;;;;7.83;5.87;;;;;;;4.80;64.15;97742.00;4974442;28;103932;-57
2023/03/06 08:03:04;;;;;;;9.37;6.17;;;;;;;4.83;64.66;97741.81;4965017;28;104122;-57
2023/03/06 08:05:39;;;;;;;9.37;6.30;;;;;;;4.92;64.45;97746.44;4970594;28;103025;-57
2023/03/06 08:08:08;;;;;;;8.83;6.23;;;;;;;4.96;64.14;97740.09;4976348;28;102625;-57
2023/03/06 08:10:37;;;;;;;10.43;8.00;;;;;;;4.99;64.69;97737.28;4970724;28;103883;-57
2023/03/06 08:13:05;;;;;;;7.83;6.70;;;;;;;5.05;64.22;97747.31;4974484;28;103468;-57
2023/03/06 08:15:33;;;;;;;8.63;6.27;;;;;;;5.22;64.38;97741.84;4969533;28;103849;-57
2023/03/06 08:18:01;;;;;;;10.63;6.80;;;;;;;5.33;64.62;97745.53;4973162;28;102714;-58
2023/03/06 08:20:30;;;;;;;9.13;6.80;;;;;;;5.41;63.77;97740.63;4974183;28;102695;-57
2023/03/06 08:22:59;;;;;;;10.40;6.93;;;;;;;5.38;64.15;97740.84;4976446;28;104314;-57
2023/03/06 08:25:28;;;;;;;11.67;8.00;;;;;;;5.48;63.58;97739.25;4971544;28;103011;-58
2023/03/06 08:27:56;;;;;;;9.40;7.00;;;;;;;5.50;63.42;97732.97;4970136;28;102695;-57
2023/03/06 08:30:24;;;;;;;8.73;6.80;;;;;;;5.56;63.69;97742.22;4973557;28;102803;-58
2023/03/06 08:32:52;;;;;;;10.33;7.60;;;;;;;5.48;63.47;97739.25;4978235;28;104229;-57
2023/03/06 08:35:20;;;;;;;10.20;7.23;;;;;;;5.63;63.55;97748.72;4974511;28;102992;-57
2023/03/06 08:37:48;;;;;;;10.73;6.67;;;;;;;6.07;62.95;97743.94;4970682;28;102715;-57
2023/03/06 08:40:17;;;;;;;10.00;7.27;;;;;;;5.92;63.02;97739.78;4976492;28;103452;-57
2023/03/06 08:42:47;;;;;;;11.77;7.60;;;;;;;6.13;62.92;97746.16;4974240;28;103232;-57
2023/03/06 08:45:15;;;;;;;9.17;6.70;;;;;;;6.17;62.98;97754.66;4964784;28;103275;-57
2023/03/06 08:47:43;;;;;;;10.57;7.10;;;;;;;6.20;62.80;97744.75;4971185;28;102777;-57
2023/03/06 08:50:14;;;;;;;12.20;6.60;;;;;;;6.16;62.71;97753.81;4973429;28;102696;-57
2023/03/06 08:52:41;;;;;;;9.67;7.13;;;;;;;6.27;62.65;97751.28;4973807;28;103263;-58
2023/03/06 08:55:10;;;;;;;10.37;7.23;;;;;;;6.10;63.56;97748.97;4964295;28;103233;-57
2023/03/06 08:57:40;;;;;;;9.07;6.83;;;;;;;6.15;63.70;97749.50;4975315;28;102745;-57
2023/03/06 09:00:11;;;;;;;10.20;7.23;;;;;;;6.43;63.09;97751.88;4975572;28;103977;-57
2023/03/06 09:02:39;;;;;;;10.57;7.00;;;;;;;6.32;63.04;97749.16;4995311;28;103005;-57
2023/03/06 09:05:08;;;;;;;8.33;7.03;;;;;;;6.30;62.94;97753.69;4967158;28;103111;-57
2023/03/06 09:07:36;;;;;;;8.17;5.93;;;;;;;6.33;62.47;97748.22;4975416;28;103013;-57
2023/03/06 09:10:05;;;;;;;8.70;6.23;;;;;;;6.24;62.64;97755.88;4972977;28;102785;-57
2023/03/06 09:12:33;;;;;;;9.13;7.20;;;;;;;6.16;62.91;97753.81;4974558;28;103210;-57
2023/03/06 09:15:17;;;;;;;10.27;6.37;;;;;;;6.14;62.91;97755.72;4970863;28;103303;-57
2023/03/06 09:17:47;;;;;;;10.10;6.77;;;;;;;6.24;62.65;97761.13;4975163;28;103663;-57
2023/03/06 09:20:16;;;;;;;11.57;6.70;;;;;;;6.25;62.46;97757.56;4969652;28;102796;-57
2023/03/06 09:22:44;;;;;;;8.50;6.03;;;;;;;6.18;63.42;97761.56;4974688;28;102841;-57
2023/03/06 09:25:19;;;;;;;10.30;5.87;;;;;;;5.89;63.27;97760.94;4975783;28;103204;-57
2023/03/06 09:27:47;;;;;;;9.00;6.53;;;;;;;6.07;63.55;97762.31;4972942;28;102746;-57
2023/03/06 09:30:31;;;;;;;11.70;6.73;;;;;;;6.24;63.81;97761.97;4970414;28;102712;-58
2023/03/06 09:32:59;;;;;;;9.37;6.77;;;;;;;6.10;63.84;97759.47;4975271;28;103401;-57
2023/03/06 09:35:27;;;;;;;7.83;6.10;;;;;;;6.05;64.09;97764.19;4977668;28;103074;-57
2023/03/06 09:37:55;;;;;;;8.60;6.37;;;;;;;5.93;63.76;97775.50;4973108;28;102599;-57
2023/03/06 09:40:33;;;;;;;9.53;6.17;;;;;;;5.86;64.32;97769.03;4967819;28;104049;-58
2023/03/06 09:43:01;;;;;;;10.60;6.90;;;;;;;5.72;65.25;97766.47;4964360;28;103744;-57
2023/03/06 09:45:36;;;;;;;10.13;6.77;;;;;;;5.81;64.93;97768.47;4967336;28;103191;-57
2023/03/06 09:48:10;;;;;;;7.60;6.03;;;;;;;6.12;64.50;97762.00;4970131;28;102989;-58
2023/03/06 09:50:44;;;;;;;12.30;6.47;;;;;;;5.91;65.05;97764.31;4972504;28;103872;-58
2023/03/06 09:53:20;;;;;;;8.60;6.37;;;;;;;6.24;64.08;97766.38;4966698;28;103208;-58
2023/03/06 09:55:55;;;;;;;7.70;6.30;;;;;;;5.97;64.49;97771.75;4972068;28;103395;-57
2023/03/06 09:58:25;;;;;;;9.47;6.93;;;;;;;5.98;64.51;97765.53;4969959;28;102659;-58
2023/03/06 10:01:01;;;;;;;11.00;6.13;;;;;;;6.17;64.44;97760.75;4969503;28;102805;-57
2023/03/06 10:03:32;;;;;;;7.20;5.60;;;;;;;6.26;64.97;97754.84;4974967;28;103398;-58
2023/03/06 10:06:11;;;;;;;10.40;6.60;;;;;;;6.37;64.79;97760.16;4976906;28;103196;-57
2023/03/06 10:08:48;;;;;;;9.23;6.73;;;;;;;6.41;65.08;97764.25;4971767;28;103856;-57
2023/03/06 10:11:23;;;;;;;9.77;7.13;;;;;;;6.36;64.15;97761.13;4977960;28;103558;-57
2023/03/06 10:13:57;;;;;;;9.40;6.90;;;;;;;6.04;64.69;97765.13;4969615;28;103211;-58
2023/03/06 10:16:29;;;;;;;8.37;6.70;;;;;;;6.22;63.88;97768.28;4977107;28;103206;-57
2023/03/06 10:19:01;;;;;;;8.07;6.50;;;;;;;6.04;62.65;97774.78;4973338;28;102650;-58
2023/03/06 10:21:42;;;;;;;8.10;6.13;;;;;;;6.17;63.45;97765.97;4975709;28;102933;-57
2023/03/06 10:24:23;;;;;;;10.20;6.73;;;;;;;6.17;63.76;97771.22;4979654;28;103799;-57
2023/03/06 10:26:58;;;;;;;8.37;6.50;;;;;;;6.26;63.92;97761.88;4974267;28;103186;-58
2023/03/06 10:29:41;;;;;;;9.33;6.00;;;;;;;6.34;63.38;97772.69;4972536;28;104401;-58
2023/03/06 10:32:29;;;;;;;10.00;7.10;;;;;;;6.33;63.26;97765.75;4979234;28;103561;-58
2023/03/06 10:35:17;;;;;;;7.50;6.23;;;;;;;6.48;63.33;97769.09;4973964;28;103204;-58
2023/03/06 10:37:45;;;;;;;7.97;6.00;;;;;;;6.28;62.39;97760.81;4979271;28;103219;-57
2023/03/06 10:40:16;;;;;;;7.67;6.40;;;;;;;6.59;62.53;97771.78;4975156;28;102675;-58
2023/03/06 10:42:44;;;;;;;8.63;6.67;;;;;;;6.46;62.91;97766.56;4969983;28;102643;-58
2023/03/06 10:45:15;;;;;;;7.93;5.77;;;;;;;6.49;62.72;97768.13;4971045;28;103304;-58
2023/03/06 10:47:45;;;;;;;12.03;6.57;;;;;;;6.41;62.66;97763.41;4975632;28;103256;-58
2023/03/06 10:50:26;;;;;;;9.30;7.33;;;;;;;6.54;62.37;97766.84;4979685;28;102610;-58
2023/03/06 10:53:03;;;;;;;9.13;6.40;;;;;;;6.72;61.94;97762.09;4973419;28;102820;-58
2023/03/06 10:55:33;;;;;;;8.37;6.30;;;;;;;6.80;61.88;97767.63;4979031;28;103349;-58
2023/03/06 10:58:17;;;;;;;8.73;6.20;;;;;;;7.00;59.99;97761.78;4978972;28;103212;-58
2023/03/06 11:00:45;;;;;;;9.83;6.33;;;;;;;7.07;60.20;97764.81;5001723;27;102707;-58
2023/03/06 11:03:23;;;;;;;8.93;6.27;;;;;;;6.71;60.29;97757.81;4968759;28;102815;-58
2023/03/06 11:05:58;;;;;;;6.83;5.67;;;;;;;7.08;59.29;97754.19;4978643;28;103253;-57
2023/03/06 11:08:29;;;;;;;10.83;6.80;;;;;;;7.15;58.90;97760.69;4973558;28;103340;-58
2023/03/06 11:11:01;;;;;;;7.97;6.00;;;;;;;7.18;59.27;97754.34;4978403;28;103315;-57
2023/03/06 11:13:31;;;;;;;8.17;6.10;;;;;;;6.96;59.41;97755.09;4976867;28;103365;-58
2023/03/06 11:16:05;;;;;;;8.20;7.00;;;;;;;7.33;58.58;97750.59;4977802;28;103947;-58
2023/03/06 11:18:41;;;;;;;8.37;6.30;;;;;;;6.90;57.96;97750.28;4978991;28;103398;-57
2023/03/06 11:21:26;;;;;;;8.87;6.30;;;;;;;7.19;58.21;97751.59;4971863;28;102601;-57
2023/03/06 11:24:03;;;;;;;8.83;5.90;;;;;;;7.50;55.68;97740.50;4980607;28;102695;-58
2023/03/06 11:26:41;;;;;;;7.67;6.10;;;;;;;7.22;56.98;97746.13;4969452;28;103026;-58
2023/03/06 11:29:23;;;;;;;6.87;5.83;;;;;;;7.30;56.51;97743.78;4975273;28;103765;-58
2023/03/06 11:31:54;;;;;;;9.50;6.60;;;;;;;7.02;56.84;97740.69;4978843;28;102748;-58
2023/03/06 11:34:37;;;;;;;6.90;6.00;;;;;;;7.05;57.05;97749.16;4970794;28;104668;-58
2023/03/06 11:37:09;;;;;;;11.47;7.20;;;;;;;7.16;57.01;97743.13;4975088;28;103422;-58
2023/03/06 11:39:41;;;;;;;8.67;6.03;;;;;;;7.10;58.23;97741.78;4978392;28;103204;-57
2023/03/06 11:42:18;;;;;;;8.80;6.33;;;;;;;7.16;56.87;97736.06;4979014;28;102603;-58
2023/03/06 11:44:57;;;;;;;7.83;5.87;;;;;;;7.31;56.13;97724.44;4972291;28;102722;-58